sensor_id;sensor_type;location;lat;lon;timestamp;pressure;altitude;pressure_sealevel;temperature;humidity
59608;BME280;45426;44.726;10.390;2023-02-11T00:00:51;102723.75;;;-3.79;100.00
59608;BME280;45426;44.726;10.390;2023-02-11T00:03:16;102722.75;;;-3.63;100.00
59608;BME280;45426;44.726;10.390;2023-02-11T00:05:41;102733.81;;;-3.75;100.00
59608;BME280;45426;44.726;10.390;2023-02-11T00:08:07;102730.47;;;-3.39;100.00
59608;BME280;45426;44.726;10.390;2023-02-11T00:10:32;102717.47;;;-2.89;100.00
59608;BME280;45426;44.726;10.390;2023-02-11T00:12:58;102722.97;;;-3.05;100.00
59608;BME280;45426;44.726;10.390;2023-02-11T00:15:23;102728.56;;;-3.30;100.00
59608;BME280;45426;44.726;10.390;2023-02-11T00:17:49;102730.88;;;-3.12;100.00
59608;BME280;45426;44.726;10.390;2023-02-11T00:20:14;102717.94;;;-2.64;100.00
59608;BME280;45426;44.726;10.390;2023-02-11T00:22:40;102717.00;;;-2.41;100.00
59608;BME280;45426;44.726;10.390;2023-02-11T00:25:05;102711.78;;;-3.01;100.00
59608;BME280;45426;44.726;10.390;2023-02-11T00:27:30;102719.31;;;-2.89;100.00
59608;BME280;45426;44.726;10.390;2023-02-11T00:29:56;102713.38;;;-2.70;100.00
59608;BME280;45426;44.726;10.390;2023-02-11T00:32:21;102722.22;;;-2.84;100.00
59608;BME280;45426;44.726;10.390;2023-02-11T00:34:51;102720.19;;;-2.67;100.00
59608;BME280;45426;44.726;10.390;2023-02-11T00:37:16;102722.00;;;-2.31;100.00
59608;BME280;45426;44.726;10.390;2023-02-11T00:39:41;102719.38;;;-2.46;100.00
59608;BME280;45426;44.726;10.390;2023-02-11T00:42:07;102723.91;;;-2.47;100.00
59608;BME280;45426;44.726;10.390;2023-02-11T00:44:33;102722.78;;;-2.53;100.00
59608;BME280;45426;44.726;10.390;2023-02-11T00:46:58;102725.78;;;-2.77;100.00
59608;BME280;45426;44.726;10.390;2023-02-11T00:49:24;102719.25;;;-2.38;100.00
59608;BME280;45426;44.726;10.390;2023-02-11T00:51:49;102722.94;;;-2.18;100.00
59608;BME280;45426;44.726;10.390;2023-02-11T00:54:15;102720.03;;;-2.23;100.00
59608;BME280;45426;44.726;10.390;2023-02-11T00:56:40;102723.38;;;-2.14;100.00
59608;BME280;45426;44.726;10.390;2023-02-11T00:59:05;102720.69;;;-2.21;100.00
59608;BME280;45426;44.726;10.390;2023-02-11T01:01:31;102721.34;;;-2.12;100.00
59608;BME280;45426;44.726;10.390;2023-02-11T01:03:56;102709.13;;;-2.28;100.00
59608;BME280;45426;44.726;10.390;2023-02-11T01:06:22;102714.69;;;-2.44;100.00
59608;BME280;45426;44.726;10.390;2023-02-11T01:08:47;102709.22;;;-1.93;100.00
59608;BME280;45426;44.726;10.390;2023-02-11T01:11:16;102704.31;;;-2.18;100.00
59608;BME280;45426;44.726;10.390;2023-02-11T01:13:43;102709.25;;;-2.15;100.00
59608;BME280;45426;44.726;10.390;2023-02-11T01:16:10;102713.81;;;-2.08;100.00
59608;BME280;45426;44.726;10.390;2023-02-11T01:18:36;102710.50;;;-2.32;100.00
59608;BME280;45426;44.726;10.390;2023-02-11T01:21:02;102708.22;;;-2.13;100.00
59608;BME280;45426;44.726;10.390;2023-02-11T01:23:28;102706.97;;;-2.18;100.00
59608;BME280;45426;44.726;10.390;2023-02-11T01:25:53;102719.00;;;-2.43;100.00
59608;BME280;45426;44.726;10.390;2023-02-11T01:28:21;102712.81;;;-2.07;100.00
59608;BME280;45426;44.726;10.390;2023-02-11T01:30:47;102707.31;;;-1.78;100.00
59608;BME280;45426;44.726;10.390;2023-02-11T01:33:13;102699.59;;;-2.16;100.00
59608;BME280;45426;44.726;10.390;2023-02-11T01:35:39;102699.97;;;-2.62;100.00
59608;BME280;45426;44.726;10.390;2023-02-11T01:38:06;102697.31;;;-2.62;100.00
59608;BME280;45426;44.726;10.390;2023-02-11T01:40:31;102678.56;;;-2.32;100.00
59608;BME280;45426;44.726;10.390;2023-02-11T01:42:57;102677.38;;;-2.29;100.00
59608;BME280;45426;44.726;10.390;2023-02-11T01:45:55;102681.97;;;-2.38;100.00
59608;BME280;45426;44.726;10.390;2023-02-11T01:48:28;102689.09;;;-2.24;100.00
59608;BME280;45426;44.726;10.390;2023-02-11T01:51:02;102695.28;;;-2.38;100.00
59608;BME280;45426;44.726;10.390;2023-02-11T01:53:30;102684.69;;;-2.53;100.00
59608;BME280;45426;44.726;10.390;2023-02-11T01:56:15;102673.50;;;-2.85;100.00
59608;BME280;45426;44.726;10.390;2023-02-11T01:59:06;102665.31;;;-2.68;100.00
59608;BME280;45426;44.726;10.390;2023-02-11T02:01:37;102667.41;;;-3.00;100.00
59608;BME280;45426;44.726;10.390;2023-02-11T02:04:05;102670.03;;;-2.85;100.00
59608;BME280;45426;44.726;10.390;2023-02-11T02:06:48;102665.03;;;-3.10;100.00
59608;BME280;45426;44.726;10.390;2023-02-11T02:09:23;102658.59;;;-3.01;100.00
59608;BME280;45426;44.726;10.390;2023-02-11T02:11:50;102653.16;;;-2.93;100.00
59608;BME280;45426;44.726;10.390;2023-02-11T02:14:16;102654.00;;;-3.07;100.00
59608;BME280;45426;44.726;10.390;2023-02-11T02:16:43;102650.72;;;-3.09;100.00
59608;BME280;45426;44.726;10.390;2023-02-11T02:33:46;102635.34;;;-3.28;100.00
59608;BME280;45426;44.726;10.390;2023-02-11T02:36:42;102635.88;;;-3.18;100.00
59608;BME280;45426;44.726;10.390;2023-02-11T02:39:26;102640.09;;;-3.24;100.00
59608;BME280;45426;44.726;10.390;2023-02-11T02:41:53;102638.47;;;-3.25;100.00
59608;BME280;45426;44.726;10.390;2023-02-11T02:44:20;102623.47;;;-3.11;100.00
59608;BME280;45426;44.726;10.390;2023-02-11T02:46:46;102634.44;;;-3.36;100.00
59608;BME280;45426;44.726;10.390;2023-02-11T02:49:13;102630.03;;;-3.43;100.00
59608;BME280;45426;44.726;10.390;2023-02-11T02:54:43;102616.19;;;-3.39;100.00
59608;BME280;45426;44.726;10.390;2023-02-11T02:57:31;102621.63;;;-3.47;100.00
59608;BME280;45426;44.726;10.390;2023-02-11T03:02:49;102618.13;;;-3.33;100.00
59608;BME280;45426;44.726;10.390;2023-02-11T03:07:55;102611.97;;;-3.33;100.00
59608;BME280;45426;44.726;10.390;2023-02-11T03:10:35;102609.91;;;-3.16;100.00
59608;BME280;45426;44.726;10.390;2023-02-11T03:13:02;102614.16;;;-2.85;100.00
59608;BME280;45426;44.726;10.390;2023-02-11T03:15:31;102613.75;;;-2.67;100.00
59608;BME280;45426;44.726;10.390;2023-02-11T03:18:00;102612.31;;;-2.42;100.00
59608;BME280;45426;44.726;10.390;2023-02-11T03:20:29;102614.03;;;-2.77;100.00
59608;BME280;45426;44.726;10.390;2023-02-11T03:23:05;102615.84;;;-3.51;100.00
59608;BME280;45426;44.726;10.390;2023-02-11T03:25:44;102607.69;;;-3.49;100.00
59608;BME280;45426;44.726;10.390;2023-02-11T03:28:32;102605.94;;;-3.42;100.00
59608;BME280;45426;44.726;10.390;2023-02-11T03:31:16;102608.59;;;-3.42;100.00
59608;BME280;45426;44.726;10.390;2023-02-11T03:34:05;102609.72;;;-3.51;100.00
59608;BME280;45426;44.726;10.390;2023-02-11T03:36:54;102607.34;;;-3.76;100.00
59608;BME280;45426;44.726;10.390;2023-02-11T03:39:35;102607.13;;;-3.59;100.00
59608;BME280;45426;44.726;10.390;2023-02-11T03:42:03;102587.78;;;-3.38;100.00
59608;BME280;45426;44.726;10.390;2023-02-11T03:44:35;102595.63;;;-3.66;100.00
59608;BME280;45426;44.726;10.390;2023-02-11T03:47:03;102596.16;;;-3.56;100.00
59608;BME280;45426;44.726;10.390;2023-02-11T03:49:32;102597.59;;;-3.39;100.00
59608;BME280;45426;44.726;10.390;2023-02-11T03:51:59;102596.31;;;-3.43;100.00
59608;BME280;45426;44.726;10.390;2023-02-11T03:54:29;102591.75;;;-3.49;100.00
59608;BME280;45426;44.726;10.390;2023-02-11T03:56:57;102581.81;;;-3.25;100.00
59608;BME280;45426;44.726;10.390;2023-02-11T03:59:23;102601.91;;;-3.38;100.00
59608;BME280;45426;44.726;10.390;2023-02-11T04:01:49;102591.91;;;-3.36;100.00
59608;BME280;45426;44.726;10.390;2023-02-11T04:04:14;102583.53;;;-3.18;100.00
59608;BME280;45426;44.726;10.390;2023-02-11T04:06:40;102580.34;;;-2.91;100.00
59608;BME280;45426;44.726;10.390;2023-02-11T04:09:05;102586.75;;;-3.22;100.00
59608;BME280;45426;44.726;10.390;2023-02-11T04:11:31;102590.25;;;-3.37;100.00
59608;BME280;45426;44.726;10.390;2023-02-11T04:13:56;102584.03;;;-3.29;100.00
59608;BME280;45426;44.726;10.390;2023-02-11T04:16:22;102588.50;;;-3.44;100.00
59608;BME280;45426;44.726;10.390;2023-02-11T04:18:48;102585.31;;;-3.40;100.00
59608;BME280;45426;44.726;10.390;2023-02-11T04:21:13;102577.81;;;-3.15;100.00
59608;BME280;45426;44.726;10.390;2023-02-11T04:23:38;102575.22;;;-2.93;100.00
59608;BME280;45426;44.726;10.390;2023-02-11T04:26:04;102577.91;;;-3.08;100.00
59608;BME280;45426;44.726;10.390;2023-02-11T04:28:29;102570.56;;;-2.84;100.00
59608;BME280;45426;44.726;10.390;2023-02-11T04:30:55;102568.25;;;-2.72;100.00
59608;BME280;45426;44.726;10.390;2023-02-11T04:33:21;102570.56;;;-2.84;100.00
59608;BME280;45426;44.726;10.390;2023-02-11T04:35:46;102567.66;;;-2.68;100.00
59608;BME280;45426;44.726;10.390;2023-02-11T04:38:12;102563.38;;;-2.69;100.00
59608;BME280;45426;44.726;10.390;2023-02-11T04:40:38;102564.63;;;-2.65;100.00
59608;BME280;45426;44.726;10.390;2023-02-11T04:43:04;102566.31;;;-2.79;100.00
59608;BME280;45426;44.726;10.390;2023-02-11T04:45:29;102566.84;;;-2.68;100.00
59608;BME280;45426;44.726;10.390;2023-02-11T04:47:55;102565.13;;;-2.76;100.00
59608;BME280;45426;44.726;10.390;2023-02-11T04:50:20;102566.69;;;-3.03;100.00
59608;BME280;45426;44.726;10.390;2023-02-11T04:52:45;102557.97;;;-2.97;100.00
59608;BME280;45426;44.726;10.390;2023-02-11T04:55:11;102565.25;;;-2.63;100.00
59608;BME280;45426;44.726;10.390;2023-02-11T04:57:37;102564.94;;;-2.53;100.00
59608;BME280;45426;44.726;10.390;2023-02-11T05:00:04;102556.81;;;-2.45;100.00
59608;BME280;45426;44.726;10.390;2023-02-11T05:02:29;102562.69;;;-2.99;100.00
59608;BME280;45426;44.726;10.390;2023-02-11T05:04:54;102556.69;;;-3.01;100.00
59608;BME280;45426;44.726;10.390;2023-02-11T05:07:20;102567.47;;;-3.09;100.00
59608;BME280;45426;44.726;10.390;2023-02-11T05:09:45;102566.88;;;-3.05;100.00
59608;BME280;45426;44.726;10.390;2023-02-11T05:12:11;102572.31;;;-3.13;100.00
59608;BME280;45426;44.726;10.390;2023-02-11T05:14:36;102573.56;;;-3.30;100.00
59608;BME280;45426;44.726;10.390;2023-02-11T05:17:01;102575.03;;;-3.43;100.00
59608;BME280;45426;44.726;10.390;2023-02-11T05:19:27;102583.88;;;-3.57;100.00
59608;BME280;45426;44.726;10.390;2023-02-11T05:21:52;102571.63;;;-3.37;100.00
59608;BME280;45426;44.726;10.390;2023-02-11T05:24:18;102574.34;;;-3.66;100.00
59608;BME280;45426;44.726;10.390;2023-02-11T05:26:44;102575.47;;;-3.76;100.00
59608;BME280;45426;44.726;10.390;2023-02-11T05:29:09;102568.03;;;-3.80;100.00
59608;BME280;45426;44.726;10.390;2023-02-11T05:31:34;102575.81;;;-3.79;100.00
59608;BME280;45426;44.726;10.390;2023-02-11T05:34:00;102566.94;;;-3.86;100.00
59608;BME280;45426;44.726;10.390;2023-02-11T05:36:28;102573.31;;;-4.10;100.00
59608;BME280;45426;44.726;10.390;2023-02-11T05:38:53;102569.94;;;-4.19;100.00
59608;BME280;45426;44.726;10.390;2023-02-11T05:41:18;102566.56;;;-3.98;100.00
59608;BME280;45426;44.726;10.390;2023-02-11T05:43:47;102562.81;;;-3.88;100.00
59608;BME280;45426;44.726;10.390;2023-02-11T05:46:12;102563.44;;;-4.16;100.00
59608;BME280;45426;44.726;10.390;2023-02-11T05:48:38;102559.13;;;-4.02;100.00
59608;BME280;45426;44.726;10.390;2023-02-11T05:51:03;102563.53;;;-3.80;100.00
59608;BME280;45426;44.726;10.390;2023-02-11T05:53:28;102550.72;;;-3.91;100.00
59608;BME280;45426;44.726;10.390;2023-02-11T05:55:54;102561.97;;;-3.89;100.00
59608;BME280;45426;44.726;10.390;2023-02-11T05:58:19;102562.44;;;-3.71;100.00
59608;BME280;45426;44.726;10.390;2023-02-11T06:00:45;102560.97;;;-3.73;100.00
59608;BME280;45426;44.726;10.390;2023-02-11T06:03:10;102557.56;;;-3.82;100.00
59608;BME280;45426;44.726;10.390;2023-02-11T06:05:36;102555.66;;;-4.03;100.00
59608;BME280;45426;44.726;10.390;2023-02-11T06:08:01;102558.66;;;-4.06;100.00
59608;BME280;45426;44.726;10.390;2023-02-11T06:10:26;102554.91;;;-3.82;100.00
59608;BME280;45426;44.726;10.390;2023-02-11T06:12:52;102555.56;;;-3.95;100.00
59608;BME280;45426;44.726;10.390;2023-02-11T06:15:17;102542.25;;;-3.50;100.00
59608;BME280;45426;44.726;10.390;2023-02-11T06:17:51;102540.44;;;-3.49;100.00
59608;BME280;45426;44.726;10.390;2023-02-11T06:20:17;102549.81;;;-3.83;100.00
59608;BME280;45426;44.726;10.390;2023-02-11T06:22:42;102548.50;;;-4.02;100.00
59608;BME280;45426;44.726;10.390;2023-02-11T06:25:08;102556.22;;;-4.07;100.00
59608;BME280;45426;44.726;10.390;2023-02-11T06:27:35;102554.66;;;-4.17;100.00
59608;BME280;45426;44.726;10.390;2023-02-11T06:30:00;102546.88;;;-4.03;100.00
59608;BME280;45426;44.726;10.390;2023-02-11T06:32:26;102551.44;;;-3.67;100.00
59608;BME280;45426;44.726;10.390;2023-02-11T06:34:52;102552.91;;;-3.80;100.00
59608;BME280;45426;44.726;10.390;2023-02-11T06:37:17;102547.03;;;-3.60;100.00
59608;BME280;45426;44.726;10.390;2023-02-11T06:39:43;102542.91;;;-3.63;100.00
59608;BME280;45426;44.726;10.390;2023-02-11T06:42:14;102548.09;;;-3.40;100.00
59608;BME280;45426;44.726;10.390;2023-02-11T06:44:39;102538.16;;;-3.67;100.00
59608;BME280;45426;44.726;10.390;2023-02-11T06:47:06;102543.66;;;-3.69;100.00
59608;BME280;45426;44.726;10.390;2023-02-11T06:49:31;102536.59;;;-3.77;100.00
59608;BME280;45426;44.726;10.390;2023-02-11T06:51:57;102542.03;;;-3.34;100.00
59608;BME280;45426;44.726;10.390;2023-02-11T06:54:22;102535.41;;;-3.01;100.00
59608;BME280;45426;44.726;10.390;2023-02-11T06:56:47;102532.94;;;-2.60;100.00
59608;BME280;45426;44.726;10.390;2023-02-11T06:59:15;102535.41;;;-0.72;100.00
59608;BME280;45426;44.726;10.390;2023-02-11T07:01:41;102532.34;;;0.30;100.00
59608;BME280;45426;44.726;10.390;2023-02-11T07:04:06;102529.97;;;0.99;100.00
59608;BME280;45426;44.726;10.390;2023-02-11T07:06:32;102527.03;;;1.82;100.00
59608;BME280;45426;44.726;10.390;2023-02-11T07:08:58;102531.91;;;1.67;100.00
59608;BME280;45426;44.726;10.390;2023-02-11T07:11:25;102538.56;;;2.01;100.00
59608;BME280;45426;44.726;10.390;2023-02-11T07:13:53;102546.59;;;2.57;100.00
59608;BME280;45426;44.726;10.390;2023-02-11T07:16:19;102534.00;;;3.53;100.00
59608;BME280;45426;44.726;10.390;2023-02-11T07:18:47;102529.94;;;3.50;100.00
59608;BME280;45426;44.726;10.390;2023-02-11T07:21:15;102534.13;;;3.94;100.00
59608;BME280;45426;44.726;10.390;2023-02-11T07:23:40;102526.44;;;5.29;100.00
59608;BME280;45426;44.726;10.390;2023-02-11T07:26:09;102534.66;;;4.31;100.00
59608;BME280;45426;44.726;10.390;2023-02-11T07:28:35;102540.19;;;4.01;100.00
59608;BME280;45426;44.726;10.390;2023-02-11T07:31:06;102538.91;;;4.56;100.00
59608;BME280;45426;44.726;10.390;2023-02-11T07:33:32;102541.47;;;3.98;100.00
59608;BME280;45426;44.726;10.390;2023-02-11T07:35:59;102535.88;;;4.12;100.00
59608;BME280;45426;44.726;10.390;2023-02-11T07:38:25;102534.78;;;4.13;100.00
59608;BME280;45426;44.726;10.390;2023-02-11T07:40:50;102537.88;;;3.81;100.00
59608;BME280;45426;44.726;10.390;2023-02-11T07:43:15;102536.94;;;5.25;100.00
59608;BME280;45426;44.726;10.390;2023-02-11T07:45:41;102543.00;;;4.06;100.00
59608;BME280;45426;44.726;10.390;2023-02-11T07:48:06;102555.50;;;2.69;100.00
59608;BME280;45426;44.726;10.390;2023-02-11T07:50:31;102558.84;;;2.52;100.00
59608;BME280;45426;44.726;10.390;2023-02-11T07:52:57;102547.97;;;2.78;100.00
59608;BME280;45426;44.726;10.390;2023-02-11T07:55:22;102554.25;;;3.02;100.00
59608;BME280;45426;44.726;10.390;2023-02-11T07:57:48;102552.31;;;3.21;100.00
59608;BME280;45426;44.726;10.390;2023-02-11T08:00:13;102555.81;;;4.27;100.00
59608;BME280;45426;44.726;10.390;2023-02-11T08:02:39;102548.03;;;4.55;100.00
59608;BME280;45426;44.726;10.390;2023-02-11T08:05:05;102543.75;;;4.71;100.00
59608;BME280;45426;44.726;10.390;2023-02-11T08:07:30;102556.59;;;4.52;100.00
59608;BME280;45426;44.726;10.390;2023-02-11T08:09:56;102551.03;;;5.33;100.00
59608;BME280;45426;44.726;10.390;2023-02-11T08:12:21;102552.31;;;5.81;100.00
59608;BME280;45426;44.726;10.390;2023-02-11T08:14:47;102554.59;;;6.28;100.00
59608;BME280;45426;44.726;10.390;2023-02-11T08:17:12;102555.19;;;5.91;100.00
59608;BME280;45426;44.726;10.390;2023-02-11T08:19:38;102562.38;;;6.02;100.00
59608;BME280;45426;44.726;10.390;2023-02-11T08:22:03;102565.53;;;6.16;100.00
59608;BME280;45426;44.726;10.390;2023-02-11T08:24:29;102560.78;;;6.24;100.00
59608;BME280;45426;44.726;10.390;2023-02-11T08:26:54;102568.63;;;6.25;100.00
59608;BME280;45426;44.726;10.390;2023-02-11T08:29:20;102569.38;;;6.43;100.00
59608;BME280;45426;44.726;10.390;2023-02-11T08:31:46;102561.91;;;7.31;100.00
59608;BME280;45426;44.726;10.390;2023-02-11T08:34:12;102569.56;;;9.08;100.00
59608;BME280;45426;44.726;10.390;2023-02-11T08:36:40;102569.03;;;9.37;100.00
59608;BME280;45426;44.726;10.390;2023-02-11T08:39:12;102555.31;;;13.07;100.00
59608;BME280;45426;44.726;10.390;2023-02-11T08:41:38;102564.78;;;12.76;100.00
59608;BME280;45426;44.726;10.390;2023-02-11T08:44:03;102563.63;;;14.50;100.00
59608;BME280;45426;44.726;10.390;2023-02-11T08:46:29;102559.59;;;16.15;76.21
59608;BME280;45426;44.726;10.390;2023-02-11T08:48:54;102569.97;;;14.87;88.04
59608;BME280;45426;44.726;10.390;2023-02-11T08:51:25;102559.03;;;17.78;64.38
59608;BME280;45426;44.726;10.390;2023-02-11T08:53:55;102564.22;;;17.15;61.53
59608;BME280;45426;44.726;10.390;2023-02-11T08:56:21;102567.63;;;14.16;69.26
59608;BME280;45426;44.726;10.390;2023-02-11T08:58:50;102572.13;;;15.44;75.12
59608;BME280;45426;44.726;10.390;2023-02-11T09:01:22;102571.25;;;18.79;61.65
59608;BME280;45426;44.726;10.390;2023-02-11T09:03:47;102577.16;;;15.51;58.86
59608;BME280;45426;44.726;10.390;2023-02-11T09:06:13;102578.50;;;13.09;73.14
59608;BME280;45426;44.726;10.390;2023-02-11T09:08:41;102574.88;;;12.57;77.19
59608;BME280;45426;44.726;10.390;2023-02-11T09:11:07;102566.78;;;14.58;70.92
59608;BME280;45426;44.726;10.390;2023-02-11T09:13:33;102579.09;;;12.87;96.31
59608;BME280;45426;44.726;10.390;2023-02-11T09:16:00;102576.41;;;13.39;77.07
59608;BME280;45426;44.726;10.390;2023-02-11T09:18:26;102565.97;;;17.11;64.39
59608;BME280;45426;44.726;10.390;2023-02-11T09:20:53;102564.63;;;16.30;59.72
59608;BME280;45426;44.726;10.390;2023-02-11T09:23:18;102559.97;;;17.91;60.64
59608;BME280;45426;44.726;10.390;2023-02-11T09:25:43;102559.63;;;15.29;64.04
59608;BME280;45426;44.726;10.390;2023-02-11T09:28:09;102565.56;;;14.64;70.72
59608;BME280;45426;44.726;10.390;2023-02-11T09:30:36;102551.59;;;18.17;59.16
59608;BME280;45426;44.726;10.390;2023-02-11T09:33:02;102551.78;;;17.09;57.96
59608;BME280;45426;44.726;10.390;2023-02-11T09:35:28;102543.59;;;18.96;58.80
59608;BME280;45426;44.726;10.390;2023-02-11T09:37:53;102553.34;;;20.10;52.93
59608;BME280;45426;44.726;10.390;2023-02-11T09:40:19;102546.72;;;19.40;50.24
59608;BME280;45426;44.726;10.390;2023-02-11T09:45:33;102556.91;;;17.84;54.31
59608;BME280;45426;44.726;10.390;2023-02-11T09:48:03;102549.88;;;18.55;52.02
59608;BME280;45426;44.726;10.390;2023-02-11T09:50:35;102547.22;;;20.29;51.58
59608;BME280;45426;44.726;10.390;2023-02-11T09:55:54;102537.13;;;22.84;48.64
59608;BME280;45426;44.726;10.390;2023-02-11T09:58:29;102551.63;;;18.38;48.09
59608;BME280;45426;44.726;10.390;2023-02-11T10:06:22;102536.44;;;21.21;47.14
59608;BME280;45426;44.726;10.390;2023-02-11T10:22:43;102537.28;;;22.17;46.96
59608;BME280;45426;44.726;10.390;2023-02-11T10:25:22;102538.22;;;16.69;43.58
59608;BME280;45426;44.726;10.390;2023-02-11T10:27:50;102545.09;;;14.61;60.21
59608;BME280;45426;44.726;10.390;2023-02-11T10:30:37;102543.72;;;13.81;73.50
59608;BME280;45426;44.726;10.390;2023-02-11T10:33:15;102537.72;;;12.99;72.39
59608;BME280;45426;44.726;10.390;2023-02-11T10:35:41;102526.31;;;12.59;75.08
59608;BME280;45426;44.726;10.390;2023-02-11T10:38:09;102522.28;;;13.08;83.15
59608;BME280;45426;44.726;10.390;2023-02-11T10:40:34;102520.75;;;13.82;85.65
59608;BME280;45426;44.726;10.390;2023-02-11T10:43:03;102526.97;;;13.40;74.49
59608;BME280;45426;44.726;10.390;2023-02-11T10:45:36;102518.31;;;13.52;93.05
59608;BME280;45426;44.726;10.390;2023-02-11T10:48:04;102522.47;;;13.77;85.41
59608;BME280;45426;44.726;10.390;2023-02-11T10:50:33;102516.59;;;13.70;79.59
59608;BME280;45426;44.726;10.390;2023-02-11T10:53:14;102521.00;;;12.68;86.09
59608;BME280;45426;44.726;10.390;2023-02-11T10:55:49;102517.28;;;13.15;81.54
59608;BME280;45426;44.726;10.390;2023-02-11T10:58:23;102525.13;;;12.65;85.28
59608;BME280;45426;44.726;10.390;2023-02-11T11:00:53;102521.63;;;12.97;80.57
59608;BME280;45426;44.726;10.390;2023-02-11T11:03:22;102511.13;;;12.10;92.62
59608;BME280;45426;44.726;10.390;2023-02-11T11:06:00;102505.97;;;12.89;94.29
59608;BME280;45426;44.726;10.390;2023-02-11T11:08:42;102501.56;;;11.93;92.26
59608;BME280;45426;44.726;10.390;2023-02-11T11:11:17;102496.63;;;12.57;86.37
59608;BME280;45426;44.726;10.390;2023-02-11T11:18:51;102497.19;;;12.16;100.00
59608;BME280;45426;44.726;10.390;2023-02-11T11:23:59;102489.81;;;12.36;100.00
59608;BME280;45426;44.726;10.390;2023-02-11T11:26:39;102488.88;;;12.46;100.00
59608;BME280;45426;44.726;10.390;2023-02-11T11:29:13;102491.97;;;11.96;92.60
59608;BME280;45426;44.726;10.390;2023-02-11T11:31:52;102490.69;;;12.12;98.43
59608;BME280;45426;44.726;10.390;2023-02-11T11:36:49;102485.41;;;11.73;94.68
59608;BME280;45426;44.726;10.390;2023-02-11T11:39:22;102478.56;;;11.22;100.00
59608;BME280;45426;44.726;10.390;2023-02-11T11:41:51;102477.69;;;11.32;100.00
59608;BME280;45426;44.726;10.390;2023-02-11T11:44:41;102479.16;;;11.19;100.00
59608;BME280;45426;44.726;10.390;2023-02-11T11:47:16;102474.13;;;11.31;100.00
59608;BME280;45426;44.726;10.390;2023-02-11T11:52:43;102460.88;;;12.59;100.00
59608;BME280;45426;44.726;10.390;2023-02-11T11:55:20;102450.50;;;12.42;100.00
59608;BME280;45426;44.726;10.390;2023-02-11T11:57:47;102451.66;;;12.36;100.00
59608;BME280;45426;44.726;10.390;2023-02-11T12:00:34;102455.09;;;11.79;100.00
59608;BME280;45426;44.726;10.390;2023-02-11T12:06:14;102450.53;;;11.21;100.00
59608;BME280;45426;44.726;10.390;2023-02-11T12:20:01;102437.25;;;11.44;100.00
59608;BME280;45426;44.726;10.390;2023-02-11T12:30:40;102428.28;;;11.43;100.00
59608;BME280;45426;44.726;10.390;2023-02-11T12:50:06;102378.84;;;11.79;100.00
59608;BME280;45426;44.726;10.390;2023-02-11T12:55:39;102362.53;;;11.07;100.00
59608;BME280;45426;44.726;10.390;2023-02-11T12:58:15;102351.63;;;12.17;100.00
59608;BME280;45426;44.726;10.390;2023-02-11T13:00:55;102350.84;;;12.17;100.00
59608;BME280;45426;44.726;10.390;2023-02-11T13:03:28;102350.44;;;12.42;100.00
59608;BME280;45426;44.726;10.390;2023-02-11T13:08:31;102349.56;;;11.71;100.00
59608;BME280;45426;44.726;10.390;2023-02-11T13:11:01;102342.63;;;11.60;100.00
59608;BME280;45426;44.726;10.390;2023-02-11T13:13:54;102340.66;;;11.84;100.00
59608;BME280;45426;44.726;10.390;2023-02-11T13:22:16;102337.38;;;12.26;100.00
59608;BME280;45426;44.726;10.390;2023-02-11T13:30:29;102318.91;;;12.03;100.00
59608;BME280;45426;44.726;10.390;2023-02-11T13:35:39;102305.06;;;12.00;100.00
59608;BME280;45426;44.726;10.390;2023-02-11T13:38:22;102304.19;;;11.18;89.65
59608;BME280;45426;44.726;10.390;2023-02-11T13:41:18;102321.16;;;11.10;100.00
59608;BME280;45426;44.726;10.390;2023-02-11T13:43:59;102313.44;;;11.22;100.00
59608;BME280;45426;44.726;10.390;2023-02-11T13:46:28;102311.69;;;11.32;100.00
59608;BME280;45426;44.726;10.390;2023-02-11T13:48:58;102319.03;;;10.83;100.00
59608;BME280;45426;44.726;10.390;2023-02-11T13:51:35;102311.47;;;11.28;100.00
59608;BME280;45426;44.726;10.390;2023-02-11T13:54:02;102314.81;;;11.20;100.00
59608;BME280;45426;44.726;10.390;2023-02-11T13:56:37;102303.59;;;10.73;100.00
59608;BME280;45426;44.726;10.390;2023-02-11T13:59:47;102316.16;;;10.98;100.00
59608;BME280;45426;44.726;10.390;2023-02-11T14:02:17;102314.97;;;10.80;100.00
59608;BME280;45426;44.726;10.390;2023-02-11T14:10:56;102308.19;;;10.14;100.00
59608;BME280;45426;44.726;10.390;2023-02-11T14:15:47;102320.72;;;10.05;100.00
59608;BME280;45426;44.726;10.390;2023-02-11T14:21:21;102300.41;;;10.37;100.00
59608;BME280;45426;44.726;10.390;2023-02-11T14:23:49;102307.81;;;10.60;100.00
59608;BME280;45426;44.726;10.390;2023-02-11T14:28:59;102299.03;;;10.68;100.00
59608;BME280;45426;44.726;10.390;2023-02-11T14:31:39;102296.03;;;10.41;100.00
59608;BME280;45426;44.726;10.390;2023-02-11T14:34:17;102295.81;;;9.93;100.00
59608;BME280;45426;44.726;10.390;2023-02-11T14:42:23;102282.22;;;10.66;100.00
59608;BME280;45426;44.726;10.390;2023-02-11T14:44:53;102279.81;;;10.89;100.00
59608;BME280;45426;44.726;10.390;2023-02-11T14:50:16;102272.03;;;10.53;100.00
59608;BME280;45426;44.726;10.390;2023-02-11T14:52:43;102262.19;;;10.57;100.00
59608;BME280;45426;44.726;10.390;2023-02-11T14:55:20;102256.84;;;10.47;100.00
59608;BME280;45426;44.726;10.390;2023-02-11T14:58:22;102259.28;;;10.48;100.00
59608;BME280;45426;44.726;10.390;2023-02-11T15:00:52;102269.41;;;10.03;100.00
59608;BME280;45426;44.726;10.390;2023-02-11T15:06:06;102259.16;;;10.35;100.00
59608;BME280;45426;44.726;10.390;2023-02-11T15:08:34;102269.78;;;9.91;100.00